AirNav   Air Wisconsin Up To $57,000 Bonus
 
 2087 users online  

49C Camp Lake Airport
Camp Lake, Wisconsin, USA

GOING TO CAMP LAKE?


FAA INFORMATION EFFECTIVE 02 JANUARY 2020

Location

FAA Identifier: 49C
Lat/Long: 42-32-00.0670N 088-09-30.3130W
42-32.001117N 088-09.505217W
42.5333519,-88.1584203
(estimated)
Elevation: 755 ft. / 230 m (estimated)
Variation: 01W (1985)
From city: 1 mile W of CAMP LAKE, WI
Time zone: UTC -6 (UTC -5 during Daylight Saving Time)
Zip code: 53168

Airport Operations

Airport use: Open to the public
Control tower: no
ARTCC: CHICAGO CENTER
FSS: GREEN BAY FLIGHT SERVICE STATION
NOTAMs facility: GRB (NOTAM-D service available)
Attendance: UNATTND
Pattern altitude: 1355 ft. MSL
Wind indicator: yes
Segmented circle: yes

Airport Communications

CTAF: 122.9
WX ASOS at ENW (11 nm E): PHONE 262-652-7730
WX AWOS-3 at BUU (11 nm NW): 125.275 (262-757-0907)
WX ASOS at UGN (14 nm SE): PHONE 847-782-0876
WX AWOS-3PT at 57C (18 nm NW): 118.125 (262-642-1845)

Nearby radio navigation aids

VOR radial/distance  VOR name  Freq  Var
OBKr336/20.8NORTHBROOK VOR/DME113.0002W
BAEr169/35.4BADGER VOR/DME116.4002E
DPAr010/39.5DUPAGE VOR/DME108.4002E

 
NDB name  Hdg/Dist  Freq  Var  ID
CODEE256/6.038902WEN . -.
LAKE LAWN119/21.640402WLVV .-.. ...- ...-

Airport Services

Parking: tiedowns
Airframe service: NONE
Powerplant service: NONE
Bottled oxygen: NONE
Bulk oxygen: NONE

Runway Information

Runway 18/36

Dimensions: 2250 x 75 ft. / 686 x 23 m
Surface: turf, in fair condition
RUNWAY 18  RUNWAY 36
Latitude: 42-31.853833N42-31.481833N
Longitude: 088-09.371833W088-09.371833W
Elevation: 755.0 ft.755.0 ft.
Traffic pattern: leftright
Obstructions: 25 ft. bldg, 20 ft. from runway, 80 ft. right of centerline35 ft. trees, 60 ft. from runway, 100 ft. right of centerline, 1:1 slope to clear

Airport Ownership and Management from official FAA records

Ownership: Privately-owned
Owner: AUDREY & EDWARD SIMPSON
1545 FARIS RD
BLANCHESTER, OH 45107
Phone (937) 685-5706
Manager: ED SIMPSON
1545 FARIS RD
BLANCHESTER, OH 45107
Phone (937) 685-5706

Airport Operational Statistics

Aircraft based on the field: 7
Single engine airplanes: 7
    
Aircraft operations: avg 42/week *
91% local general aviation
9% transient general aviation
* for 12-month period ending 18 June 2019

Additional Remarks

ARPT NOT PLWD; CFM CONDS WITH AMGR 937-685-5706.
DEER ACTIVITY ON AND INVOF ARPT.
FOR CD CTC CHICAGO ARTCC AT 630-906-8921.

Instrument Procedures

There are no published instrument procedures at 49C.

Some nearby airports with instrument procedures:

KENW - Kenosha Regional Airport (11 nm E)
C02 - Grand Geneva Resort Airport (11 nm NW)
KBUU - Burlington Municipal Airport (11 nm NW)
10C - Galt Field Airport (12 nm SW)
C81 - Campbell Airport (13 nm S)
KUGN - Waukegan National Airport (14 nm SE)
57C - East Troy Municipal Airport (18 nm NW)
 
Loc | Ops | Rwys | IFR | FBO | Links
Com | Nav | Svcs | Stats | Notes
Area around 49C (Camp Lake Airport)
 
Road maps at: MapQuest Bing Google
 
Aerial photo
WARNING: Photo may not be current or correct
Aerial photo of 49C (Camp Lake Airport)
Photo by Robert A Kadera

Do you have a better or more recent aerial photo of Camp Lake Airport that you would like to share? If so, please send us your photo.

 
Sectional chart

 
Airport distance calculator
Flying to Camp Lake Airport? Find the distance to fly.

From to 49C

Sunrise and sunset
Times for 24-Jan-2020
 Local
(UTC-6)
 Zulu
(UTC)
Morning civil twilight06:4512:45
Sunrise07:1513:15
Sunset16:5522:55
Evening civil twilight17:2523:25

Current date and time
Zulu (UTC)  24-Jan-2020 21:35:24
Local (UTC-6)  24-Jan-2020 15:35:24
 
METAR
KENW 
11nm E 
242053Z 06005KT M1/4SM FG VV002 03/02 A2979 RMK AO2 SLP094 P0001 60001 T00330017 56018
KBUU 
11nm NW 
242115Z AUTO 00000KT 1/4SM FG OVC002 02/02 A2979 RMK AO2 T00210021
KUGN 
15nm SE 
242055Z 09004KT M1/4SM FG VV002 03/02 A2979 RMK AO2 SLP096 T00280017 56018 $
K57C 
18nm NW 
242115Z AUTO 05004KT 1/4SM FG OVC002 02/02 A2979 RMK AO2 T00180018
KRAC 
21nm NE 
242053Z AUTO 08005KT 1/4SM -RA FG VV002 03/02 A2981 RMK AO2 UPB07E14RAB14 SLP102 P0001 60001 T00280017 56017
TAF
KENW 
11nm E 
241903Z 2419/2518 07005KT 1/2SM -DZ FG OVC002 TEMPO 2419/2421 1/4SM FG OVC002 FM242200 05007KT 1/2SM -RASN OVC003 FM242300 04006KT 3/4SM -SN OVC003 FM250100 03006KT 3/4SM -SN OVC003 FM250500 35005KT 1SM -SN BR OVC003 FM251600 32007KT P6SM OVC004
NOTAMs
Click for the latest NOTAMs
NOTAMs are issued by the DoD/FAA and will open in a separate window not controlled by AirNav.

 

 
 

Would you like to see your business listed on this page?

 If your business provides an interesting product or service to pilots, flight crews, aircraft, or users of the Camp Lake Airport, you should consider listing it here.  To start the listing process, click on the button below
 
Add a business
 

Other Pages about Camp Lake Airport

Page from the Wisconsin airport directory (PDF)
 
Update a link
 
Copyright © AirNav, LLC. All rights reserved. Privacy Policy  Contact